Latest Coastal Weather Observations for Walpole North

IDW60701

Issued at 12:52 pm WST Monday 30 May 2016 (issued every 10 minutes, with the page automatically refreshed every 10 minutes)

About coastal observations | Map of coastal stations | Coastal observations for WA | Marine services | Other Formats
Station Details ID: 009998 Name: NORTH WALPOLE Lat: -34.95 Lon: 116.72 Height: 73.0 m
Data from the previous 72 hours. | See also: Recent months at Walpole North
Date/Time
WST
Temp

°C
Wind Pressure Rain
since 9am
mm
Weather Cloud Vis
km
Sea
Height
m
Swell
Dir
 
Speed
knots
Gust
knots
hPa Trend Height
m
Period
s
Dir
30/12:30pm 14.6 NNW 6 9 1019.0 - 0.0 - - - - - - -
30/12:00pm 14.5 N 6 12 1019.5 - 0.0 - - - - - - -
30/11:30am 14.2 NNE 6 11 1019.8 - 0.0 - - - - - - -
30/11:00am 13.9 NE 5 10 1020.1 - 0.0 - - - - - - -
30/10:30am 12.7 NNE 8 11 1020.2 - 0.0 - - - - - - -
30/10:00am 12.6 NNE 7 9 1020.5 - 0.0 - - - - - - -
30/09:30am 11.4 NNE 5 8 1020.3 - 0.0 - - - - - - -
30/09:00am 10.3 NE 4 7 1020.2 - 0.0 - - - - - - -
30/08:30am 8.5 NE 5 7 1020.3 - 0.0 - - - - - - -
30/08:00am 6.6 ENE 4 5 1020.4 - 0.0 - - - - - - -
30/07:30am 6.0 CALM 0 0 1020.2 - 0.0 - - - - - - -
30/07:00am 5.6 CALM 0 0 1020.4 - 0.0 - - - - - - -
30/06:30am 6.2 CALM 0 0 1020.2 - 0.0 - - - - - - -
30/06:00am 6.8 CALM 0 0 1019.9 - 0.0 - - - - - - -
30/05:30am 6.9 CALM 0 0 1019.7 - 0.0 - - - - - - -
30/05:00am 7.1 CALM 0 0 1019.5 - 0.0 - - - - - - -
30/04:30am 7.7 CALM 0 0 1019.2 - 0.0 - - - - - - -
30/04:00am 8.5 NE 4 6 1019.2 - 0.0 - - - - - - -
30/03:30am 9.0 NE 5 7 1019.4 - 0.0 - - - - - - -
30/03:00am 8.8 NE 4 6 1019.4 - 0.0 - - - - - - -
30/02:30am 9.5 NE 4 7 1019.6 - 0.0 - - - - - - -
30/02:00am 10.6 N 5 7 1019.6 - 0.0 - - - - - - -
30/01:30am 10.4 NNE 4 7 1019.6 - 0.0 - - - - - - -
30/01:00am 10.3 NNE 4 8 1019.8 - 0.0 - - - - - - -
30/12:30am 10.0 CALM 0 3 1020.1 - 0.0 - - - - - - -
30/12:00am 10.1 N 3 7 1020.2 - 0.0 - - - - - - -
 
Date/Time
WST
Temp

°C
Wind Pressure Rain
since 9am
mm
Weather Cloud Vis
km
Sea
Height
m
Swell
Dir
 
Speed
knots
Gust
knots
hPa Trend Height
m
Period
s
Dir
29/11:30pm 10.0 CALM 0 0 1020.3 - 0.0 - - - - - - -
29/11:00pm 10.1 CALM 0 0 1020.4 - 0.0 - - - - - - -
29/10:30pm 10.1 CALM 0 0 1020.4 - 0.0 - - - - - - -
29/10:00pm 10.1 CALM 0 0 1020.6 - 0.0 - - - - - - -
29/09:30pm 10.0 N 4 6 1020.6 - 0.0 - - - - - - -
29/09:00pm 10.2 CALM 0 5 1020.7 - 0.0 - - - - - - -
29/08:30pm 10.3 CALM 0 0 1020.7 - 0.0 - - - - - - -
29/08:00pm 10.3 ENE 3 5 1020.6 - 0.0 - - - - - - -
29/07:30pm 10.1 CALM 0 0 1020.4 - 0.0 - - - - - - -
29/07:00pm 10.3 CALM 0 0 1020.1 - 0.0 - - - - - - -
29/06:30pm 10.8 CALM 0 0 1020.1 - 0.0 - - - - - - -
29/06:00pm 10.8 CALM 0 0 1019.8 - 0.0 - - - - - - -
29/05:30pm 10.9 CALM 0 0 1019.4 - 0.0 - - - - - - -
29/05:00pm 11.7 CALM 0 0 1019.2 - 0.0 - - - - - - -
29/04:30pm 12.0 SE 3 4 1019.0 - 0.0 - - - - - - -
29/04:00pm 12.3 SE 5 7 1018.8 - 0.0 - - - - - - -
29/03:30pm 12.8 CALM 0 0 1018.7 - 0.0 - - - - - - -
29/03:00pm 12.6 SSW 5 8 1018.4 - 0.0 - - - - - - -
29/02:30pm 13.3 S 2 6 1018.3 - 0.0 - - - - - - -
29/02:00pm 13.0 SSE 4 7 1018.4 - 0.0 - - - - - - -
29/01:30pm 13.5 CALM 0 0 1018.5 - 0.0 - - - - - - -
29/01:00pm 13.1 SSW 2 5 1018.6 - 0.0 - - - - - - -
29/12:30pm 13.3 SSW 3 8 1018.8 - 0.0 - - - - - - -
29/12:00pm 13.7 W 2 5 1018.9 - 0.0 - - - - - - -
29/11:30am 13.2 S 1 5 1019.2 - 0.0 - - - - - - -
29/11:00am 13.1 SSE 4 7 1019.5 - 0.0 - - - - - - -
29/10:30am 12.5 SSW 3 8 1019.6 - 0.0 - - - - - - -
29/10:00am 11.8 CALM 0 0 1019.5 - 0.0 - - - - - - -
29/09:30am 11.3 CALM 0 0 1019.3 - 0.0 - - - - - - -
29/09:00am 10.9 CALM 0 0 1019.2 - 2.6 - - - - - - -
29/08:30am 10.7 CALM 0 0 1019.0 - 2.6 - - - - - - -
29/08:00am 10.3 CALM 0 0 1018.7 - 2.6 - - - - - - -
29/07:30am 10.1 CALM 0 0 1018.3 - 2.6 - - - - - - -
29/07:00am 10.2 CALM 0 0 1017.9 - 2.6 - - - - - - -
29/06:30am 10.2 WNW 4 6 1017.5 - 2.6 - - - - - - -
29/06:00am 10.2 CALM 0 0 1017.2 - 2.6 - - - - - - -
29/05:30am 10.3 CALM 0 0 1016.9 - 2.6 - - - - - - -
29/05:00am 10.3 NW 5 7 1016.7 - 2.6 - - - - - - -
29/04:30am 10.1 CALM 0 0 1016.4 - 2.4 - - - - - - -
29/04:00am 10.5 CALM 0 0 1016.3 - 2.4 - - - - - - -
29/03:30am 10.6 CALM 0 0 1016.0 - 2.4 - - - - - - -
29/03:00am 10.8 WNW 3 8 1015.9 - 2.4 Recent precip. - - - - - -
29/02:30am 10.9 SSW 3 7 1016.0 - 2.0 - - - - - - -
29/02:00am 10.9 SW 5 9 1015.7 - 2.0 - - - - - - -
29/01:30am 10.8 SW 1 7 1015.6 - 1.8 - - - - - - -
29/01:00am 10.8 CALM 0 0 1015.6 - 1.2 - - - - - - -
29/12:30am 10.9 W 5 7 1015.7 - 1.2 - - - - - - -
29/12:00am 10.9 CALM 0 6 1015.7 - 0.4 Recent precip. - - - - - -
 
Date/Time
WST
Temp

°C
Wind Pressure Rain
since 9am
mm
Weather Cloud Vis
km
Sea
Height
m
Swell
Dir
 
Speed
knots
Gust
knots
hPa Trend Height
m
Period
s
Dir
28/11:30pm 10.8 CALM 0 0 1015.4 - 0.2 - - - - - - -
28/11:00pm 12.0 SW 6 11 1015.4 - 0.2 - - - - - - -
28/10:30pm 11.9 SSW 5 9 1015.3 - 0.2 - - - - - - -
28/10:00pm 11.6 WSW 4 7 1015.3 - 0.2 - - - - - - -
28/09:30pm 11.5 WSW 5 8 1015.1 - 0.2 - - - - - - -
28/09:00pm 11.4 WSW 4 7 1014.9 - 0.2 - - - - - - -
28/08:30pm 11.3 WSW 4 7 1014.7 - 0.2 - - - - - - -
28/08:00pm 11.5 W 4 7 1014.7 - 0.2 - - - - - - -
28/07:30pm 11.5 CALM 0 4 1014.5 - 0.2 - - - - - - -
28/07:00pm 12.0 W 6 10 1013.9 - 0.2 - - - - - - -
28/06:30pm 11.8 WSW 1 5 1013.6 - 0.0 - - - - - - -
28/06:00pm 12.7 WSW 5 8 1013.5 - 0.0 - - - - - - -
28/05:30pm 13.3 WSW 6 9 1013.1 - 0.0 - - - - - - -
28/05:00pm 13.9 WSW 8 13 1012.9 - 0.0 - - - - - - -
28/04:30pm 14.8 WSW 9 15 1012.6 - 0.0 - - - - - - -
28/04:00pm 15.7 WSW 9 14 1012.3 - 0.0 - - - - - - -
28/03:30pm 15.7 WSW 10 15 1012.0 - 0.0 - - - - - - -
28/03:00pm 15.4 WSW 11 19 1011.6 - 0.0 - - - - - - -
28/02:30pm 15.5 WSW 13 21 1011.3 - 0.0 - - - - - - -
28/02:00pm 16.1 WSW 10 17 1010.9 - 0.0 - - - - - - -
28/01:30pm 15.2 WSW 9 15 1010.7 - 0.0 - - - - - - -
28/01:00pm 15.9 WSW 12 20 1010.5 - 0.0 - - - - - - -
28/12:30pm 16.6 WSW 12 20 1010.5 - 0.0 - - - - - - -
28/12:00pm 15.7 W 11 18 1010.7 - 0.0 - - - - - - -
28/11:30am 15.9 WSW 12 19 1010.9 - 0.0 - - - - - - -
28/11:00am 16.4 W 10 20 1010.9 - 0.0 - - - - - - -
28/10:30am 15.1 WNW 9 13 1011.2 - 0.0 - - - - - - -
28/10:00am 14.8 NW 8 10 1011.0 - 0.0 - - - - - - -
28/09:30am 13.5 NW 8 10 1011.0 - 0.0 - - - - - - -
28/09:00am 12.8 NW 8 14 1010.9 - 16.8 - - - - - - -
28/08:30am 12.8 NW 4 7 1010.5 - 16.8 - - - - - - -
28/08:00am 11.6 WNW 6 9 1010.5 - 16.8 - - - - - - -
28/07:30am 11.4 WNW 7 9 1010.0 - 16.8 - - - - - - -
28/07:00am 11.1 NW 6 9 1009.8 - 16.8 - - - - - - -
28/06:30am 11.6 NW 8 11 1009.6 - 16.2 - - - - - - -
28/06:00am 11.4 NW 7 9 1009.4 - 16.2 Recent precip. - - - - - -
28/05:30am 11.7 NW 9 13 1009.0 - 16.2 - - - - - - -
28/05:00am 11.5 WNW 3 8 1008.9 - 16.0 - - - - - - -
28/04:30am 12.1 NNW 11 15 1009.0 - 13.8 - - - - - - -
28/04:00am 11.7 NNW 9 13 1008.7 - 13.2 - - - - - - -
28/03:30am 11.6 NW 9 14 1008.9 - 13.2 - - - - - - -
28/03:00am 11.4 N 5 9 1009.3 - 13.0 Recent precip. - - - - - -
28/02:30am 11.4 WNW 3 7 1009.7 - 13.0 - - - - - - -
28/02:00am 11.5 NNW 6 10 1009.6 - 10.4 - - - - - - -
28/01:30am 12.2 WNW 8 11 1010.5 - 2.2 - - - - - - -
28/01:00am 14.0 NW 9 13 1009.7 - 0.0 - - - - - - -
28/12:30am 14.4 NNW 9 16 1009.7 - 0.0 - - - - - - -
28/12:00am 14.4 N 11 19 1009.5 - 0.0 - - - - - - -
 
Date/Time
WST
Temp

°C
Wind Pressure Rain
since 9am
mm
Weather Cloud Vis
km
Sea
Height
m
Swell
Dir
 
Speed
knots
Gust
knots
hPa Trend Height
m
Period
s
Dir
27/11:30pm 14.2 N 10 19 1009.9 - 0.0 - - - - - - -
27/11:00pm 13.9 N 9 17 1010.5 - 0.0 - - - - - - -
27/10:30pm 13.8 NNE 9 15 1010.7 - 0.0 - - - - - - -
27/10:00pm 13.7 N 6 11 1012.1 - 0.0 - - - - - - -
27/09:30pm 13.6 N 9 16 1012.7 - 0.0 - - - - - - -
27/09:00pm 13.8 NNE 10 16 1013.1 - 0.0 - - - - - - -
27/08:30pm 14.1 NNE 9 14 1013.7 - 0.0 - - - - - - -
27/08:00pm 14.2 NNE 8 13 1014.2 - 0.0 - - - - - - -
27/07:30pm 14.6 NNE 8 13 1014.6 - 0.0 - - - - - - -
27/07:00pm 15.0 NNE 8 12 1015.2 - 0.0 - - - - - - -
27/06:30pm 15.2 NNE 7 12 1015.4 - 0.0 - - - - - - -
27/06:00pm 15.2 NNE 6 10 1015.3 - 0.0 - - - - - - -
27/05:30pm 15.3 NNE 5 8 1015.5 - 0.0 - - - - - - -
27/05:00pm 15.3 N 5 8 1015.6 - 0.0 - - - - - - -
27/04:30pm 15.8 NNW 5 8 1015.7 - 0.0 - - - - - - -
27/04:00pm 16.1 NNW 5 8 1016.1 - 0.0 - - - - - - -
27/03:30pm 16.3 NNW 5 9 1016.5 - 0.0 - - - - - - -
27/03:00pm 16.4 NNW 8 15 1016.8 - 0.0 - - - - - - -
27/02:30pm 17.2 NNW 11 17 1016.9 - 0.0 - - - - - - -
27/02:00pm 16.8 NW 12 17 1017.2 - 0.0 - - - - - - -
27/01:30pm 16.9 N 9 15 1017.6 - 0.0 - - - - - - -
27/01:00pm 15.6 NNW 9 15 1018.3 - 0.0 - - - - - - -

Other Formats:

Comma delimited format used in spreadsheet applications
http://www.bom.gov.au/fwo/IDW60701/IDW60701.95647.axf

JavaScript Object Notation format (JSON) in row-major order
http://www.bom.gov.au/fwo/IDW60701/IDW60701.95647.json